sensor_id;sensor_type;location;lat;lon;timestamp;P1;durP1;ratioP1;P2;durP2;ratioP2
19985;SDS011;10154;52.474;10.768;2023-03-01T00:01:32;17.57;;;6.60;;
19985;SDS011;10154;52.474;10.768;2023-03-01T00:03:58;16.20;;;6.53;;
19985;SDS011;10154;52.474;10.768;2023-03-01T00:06:24;15.40;;;6.73;;
19985;SDS011;10154;52.474;10.768;2023-03-01T00:08:50;19.03;;;7.30;;
19985;SDS011;10154;52.474;10.768;2023-03-01T00:11:18;15.70;;;6.53;;
19985;SDS011;10154;52.474;10.768;2023-03-01T00:13:45;16.63;;;6.20;;
19985;SDS011;10154;52.474;10.768;2023-03-01T00:16:19;14.40;;;6.13;;
19985;SDS011;10154;52.474;10.768;2023-03-01T00:18:48;14.57;;;6.50;;
19985;SDS011;10154;52.474;10.768;2023-03-01T00:21:16;18.37;;;6.60;;
19985;SDS011;10154;52.474;10.768;2023-03-01T00:23:42;16.50;;;6.43;;
19985;SDS011;10154;52.474;10.768;2023-03-01T00:26:09;15.27;;;6.27;;
19985;SDS011;10154;52.474;10.768;2023-03-01T00:28:37;14.57;;;6.07;;
19985;SDS011;10154;52.474;10.768;2023-03-01T00:31:06;16.33;;;6.27;;
19985;SDS011;10154;52.474;10.768;2023-03-01T00:33:34;14.20;;;6.00;;
19985;SDS011;10154;52.474;10.768;2023-03-01T00:35:59;15.43;;;6.47;;
19985;SDS011;10154;52.474;10.768;2023-03-01T00:38:25;13.77;;;6.17;;
19985;SDS011;10154;52.474;10.768;2023-03-01T00:40:50;16.13;;;6.47;;
19985;SDS011;10154;52.474;10.768;2023-03-01T00:43:15;14.23;;;6.57;;
19985;SDS011;10154;52.474;10.768;2023-03-01T00:45:41;17.10;;;6.47;;
19985;SDS011;10154;52.474;10.768;2023-03-01T00:48:06;13.33;;;6.60;;
19985;SDS011;10154;52.474;10.768;2023-03-01T00:50:31;14.37;;;6.57;;
19985;SDS011;10154;52.474;10.768;2023-03-01T00:52:57;14.83;;;7.00;;
19985;SDS011;10154;52.474;10.768;2023-03-01T00:55:22;15.23;;;6.47;;
19985;SDS011;10154;52.474;10.768;2023-03-01T00:57:48;14.43;;;6.63;;
19985;SDS011;10154;52.474;10.768;2023-03-01T01:00:14;19.53;;;6.77;;
19985;SDS011;10154;52.474;10.768;2023-03-01T01:02:40;15.93;;;6.17;;
19985;SDS011;10154;52.474;10.768;2023-03-01T01:05:05;16.63;;;6.43;;
19985;SDS011;10154;52.474;10.768;2023-03-01T01:07:31;17.67;;;7.10;;
19985;SDS011;10154;52.474;10.768;2023-03-01T01:09:57;15.20;;;6.43;;
19985;SDS011;10154;52.474;10.768;2023-03-01T01:12:22;15.80;;;6.30;;
19985;SDS011;10154;52.474;10.768;2023-03-01T01:14:48;16.10;;;6.43;;
19985;SDS011;10154;52.474;10.768;2023-03-01T01:17:13;16.93;;;6.63;;
19985;SDS011;10154;52.474;10.768;2023-03-01T01:19:38;14.40;;;6.53;;
19985;SDS011;10154;52.474;10.768;2023-03-01T01:22:04;15.43;;;6.13;;
19985;SDS011;10154;52.474;10.768;2023-03-01T01:24:29;17.77;;;6.50;;
19985;SDS011;10154;52.474;10.768;2023-03-01T01:26:55;16.23;;;6.50;;
19985;SDS011;10154;52.474;10.768;2023-03-01T01:29:20;16.10;;;6.70;;
19985;SDS011;10154;52.474;10.768;2023-03-01T01:31:46;14.37;;;6.70;;
19985;SDS011;10154;52.474;10.768;2023-03-01T01:34:13;15.77;;;6.43;;
19985;SDS011;10154;52.474;10.768;2023-03-01T01:36:40;18.97;;;7.70;;
19985;SDS011;10154;52.474;10.768;2023-03-01T01:39:05;19.17;;;8.07;;
19985;SDS011;10154;52.474;10.768;2023-03-01T01:41:31;17.83;;;7.27;;
19985;SDS011;10154;52.474;10.768;2023-03-01T01:44:10;20.90;;;8.47;;
19985;SDS011;10154;52.474;10.768;2023-03-01T01:46:41;21.77;;;8.57;;
19985;SDS011;10154;52.474;10.768;2023-03-01T01:49:17;22.27;;;8.13;;
19985;SDS011;10154;52.474;10.768;2023-03-01T01:51:47;20.27;;;7.70;;
19985;SDS011;10154;52.474;10.768;2023-03-01T01:54:15;20.27;;;8.37;;
19985;SDS011;10154;52.474;10.768;2023-03-01T01:56:52;22.73;;;8.63;;
19985;SDS011;10154;52.474;10.768;2023-03-01T01:59:21;26.53;;;10.00;;
19985;SDS011;10154;52.474;10.768;2023-03-01T02:01:49;20.23;;;8.27;;
19985;SDS011;10154;52.474;10.768;2023-03-01T02:04:15;22.00;;;7.73;;
19985;SDS011;10154;52.474;10.768;2023-03-01T02:06:42;18.83;;;7.67;;
19985;SDS011;10154;52.474;10.768;2023-03-01T02:09:13;14.67;;;6.77;;
19985;SDS011;10154;52.474;10.768;2023-03-01T02:11:39;19.23;;;7.10;;
19985;SDS011;10154;52.474;10.768;2023-03-01T02:14:05;17.37;;;7.07;;
19985;SDS011;10154;52.474;10.768;2023-03-01T02:16:30;18.27;;;6.70;;
19985;SDS011;10154;52.474;10.768;2023-03-01T02:18:56;17.43;;;7.60;;
19985;SDS011;10154;52.474;10.768;2023-03-01T02:24:38;23.63;;;9.30;;
19985;SDS011;10154;52.474;10.768;2023-03-01T02:27:04;21.83;;;9.03;;
19985;SDS011;10154;52.474;10.768;2023-03-01T02:29:29;22.73;;;8.40;;
19985;SDS011;10154;52.474;10.768;2023-03-01T02:31:56;26.03;;;9.40;;
19985;SDS011;10154;52.474;10.768;2023-03-01T02:34:23;22.77;;;8.80;;
19985;SDS011;10154;52.474;10.768;2023-03-01T02:39:26;21.07;;;8.03;;
19985;SDS011;10154;52.474;10.768;2023-03-01T02:41:55;18.23;;;6.60;;
19985;SDS011;10154;52.474;10.768;2023-03-01T02:44:21;13.07;;;6.13;;
19985;SDS011;10154;52.474;10.768;2023-03-01T02:46:48;17.10;;;6.67;;
19985;SDS011;10154;52.474;10.768;2023-03-01T02:49:17;16.57;;;6.93;;
19985;SDS011;10154;52.474;10.768;2023-03-01T02:54:32;17.90;;;6.87;;
19985;SDS011;10154;52.474;10.768;2023-03-01T02:57:02;17.37;;;6.70;;
19985;SDS011;10154;52.474;10.768;2023-03-01T02:59:29;17.63;;;6.60;;
19985;SDS011;10154;52.474;10.768;2023-03-01T03:01:56;16.63;;;6.60;;
19985;SDS011;10154;52.474;10.768;2023-03-01T03:04:21;19.83;;;7.07;;
19985;SDS011;10154;52.474;10.768;2023-03-01T03:06:47;17.43;;;6.67;;
19985;SDS011;10154;52.474;10.768;2023-03-01T03:09:14;14.47;;;6.47;;
19985;SDS011;10154;52.474;10.768;2023-03-01T03:11:40;15.87;;;6.87;;
19985;SDS011;10154;52.474;10.768;2023-03-01T03:14:06;18.73;;;6.90;;
19985;SDS011;10154;52.474;10.768;2023-03-01T03:16:39;18.03;;;6.63;;
19985;SDS011;10154;52.474;10.768;2023-03-01T03:19:05;19.33;;;6.73;;
19985;SDS011;10154;52.474;10.768;2023-03-01T03:21:31;17.57;;;6.37;;
19985;SDS011;10154;52.474;10.768;2023-03-01T03:23:58;14.93;;;6.37;;
19985;SDS011;10154;52.474;10.768;2023-03-01T03:26:23;12.87;;;6.30;;
19985;SDS011;10154;52.474;10.768;2023-03-01T03:28:48;19.10;;;7.30;;
19985;SDS011;10154;52.474;10.768;2023-03-01T03:31:14;13.33;;;5.90;;
19985;SDS011;10154;52.474;10.768;2023-03-01T03:33:39;17.40;;;6.23;;
19985;SDS011;10154;52.474;10.768;2023-03-01T03:36:05;13.53;;;5.53;;
19985;SDS011;10154;52.474;10.768;2023-03-01T03:38:30;12.77;;;5.83;;
19985;SDS011;10154;52.474;10.768;2023-03-01T03:41:03;14.73;;;5.57;;
19985;SDS011;10154;52.474;10.768;2023-03-01T03:43:30;14.80;;;5.17;;
19985;SDS011;10154;52.474;10.768;2023-03-01T03:45:57;14.73;;;6.20;;
19985;SDS011;10154;52.474;10.768;2023-03-01T03:48:23;15.37;;;5.20;;
19985;SDS011;10154;52.474;10.768;2023-03-01T03:50:50;14.50;;;6.00;;
19985;SDS011;10154;52.474;10.768;2023-03-01T03:53:20;14.93;;;5.20;;
19985;SDS011;10154;52.474;10.768;2023-03-01T03:55:46;14.90;;;5.30;;
19985;SDS011;10154;52.474;10.768;2023-03-01T03:58:14;12.97;;;5.43;;
19985;SDS011;10154;52.474;10.768;2023-03-01T04:00:40;12.57;;;5.03;;
19985;SDS011;10154;52.474;10.768;2023-03-01T04:03:07;13.10;;;5.27;;
19985;SDS011;10154;52.474;10.768;2023-03-01T04:05:33;11.70;;;5.10;;
19985;SDS011;10154;52.474;10.768;2023-03-01T04:07:59;17.77;;;6.13;;
19985;SDS011;10154;52.474;10.768;2023-03-01T04:10:28;11.27;;;4.93;;
19985;SDS011;10154;52.474;10.768;2023-03-01T04:12:55;14.63;;;5.83;;
19985;SDS011;10154;52.474;10.768;2023-03-01T04:15:24;12.43;;;4.67;;
19985;SDS011;10154;52.474;10.768;2023-03-01T04:17:51;15.30;;;5.10;;
19985;SDS011;10154;52.474;10.768;2023-03-01T04:20:18;13.00;;;4.90;;
19985;SDS011;10154;52.474;10.768;2023-03-01T04:22:50;12.13;;;5.27;;
19985;SDS011;10154;52.474;10.768;2023-03-01T04:28:19;12.43;;;4.97;;
19985;SDS011;10154;52.474;10.768;2023-03-01T04:30:45;10.80;;;5.23;;
19985;SDS011;10154;52.474;10.768;2023-03-01T04:33:10;10.43;;;5.03;;
19985;SDS011;10154;52.474;10.768;2023-03-01T04:35:36;14.97;;;5.43;;
19985;SDS011;10154;52.474;10.768;2023-03-01T04:38:03;12.17;;;5.47;;
19985;SDS011;10154;52.474;10.768;2023-03-01T04:40:29;10.23;;;4.70;;
19985;SDS011;10154;52.474;10.768;2023-03-01T04:42:54;13.67;;;5.37;;
19985;SDS011;10154;52.474;10.768;2023-03-01T04:45:20;11.57;;;5.00;;
19985;SDS011;10154;52.474;10.768;2023-03-01T04:47:46;14.40;;;5.57;;
19985;SDS011;10154;52.474;10.768;2023-03-01T04:50:12;11.27;;;5.20;;
19985;SDS011;10154;52.474;10.768;2023-03-01T04:52:39;11.97;;;5.13;;
19985;SDS011;10154;52.474;10.768;2023-03-01T04:55:05;12.93;;;5.27;;
19985;SDS011;10154;52.474;10.768;2023-03-01T04:57:31;15.60;;;5.73;;
19985;SDS011;10154;52.474;10.768;2023-03-01T04:59:57;15.33;;;5.43;;
19985;SDS011;10154;52.474;10.768;2023-03-01T05:02:22;22.17;;;7.10;;
19985;SDS011;10154;52.474;10.768;2023-03-01T05:04:48;25.23;;;9.37;;
19985;SDS011;10154;52.474;10.768;2023-03-01T05:07:13;31.73;;;10.27;;
19985;SDS011;10154;52.474;10.768;2023-03-01T05:09:44;29.80;;;9.23;;
19985;SDS011;10154;52.474;10.768;2023-03-01T05:12:10;18.70;;;6.93;;
19985;SDS011;10154;52.474;10.768;2023-03-01T05:14:35;15.43;;;5.73;;
19985;SDS011;10154;52.474;10.768;2023-03-01T05:17:01;13.37;;;5.43;;
19985;SDS011;10154;52.474;10.768;2023-03-01T05:19:29;16.07;;;6.20;;
19985;SDS011;10154;52.474;10.768;2023-03-01T05:21:55;11.60;;;5.40;;
19985;SDS011;10154;52.474;10.768;2023-03-01T05:24:29;10.77;;;4.83;;
19985;SDS011;10154;52.474;10.768;2023-03-01T05:26:55;14.17;;;5.90;;
19985;SDS011;10154;52.474;10.768;2023-03-01T05:29:21;14.23;;;5.17;;
19985;SDS011;10154;52.474;10.768;2023-03-01T05:31:56;15.80;;;5.63;;
19985;SDS011;10154;52.474;10.768;2023-03-01T05:34:30;13.30;;;5.10;;
19985;SDS011;10154;52.474;10.768;2023-03-01T05:36:57;16.07;;;4.90;;
19985;SDS011;10154;52.474;10.768;2023-03-01T05:39:24;12.50;;;5.20;;
19985;SDS011;10154;52.474;10.768;2023-03-01T05:41:54;13.83;;;4.97;;
19985;SDS011;10154;52.474;10.768;2023-03-01T05:44:20;14.23;;;5.33;;
19985;SDS011;10154;52.474;10.768;2023-03-01T05:46:46;13.20;;;5.63;;
19985;SDS011;10154;52.474;10.768;2023-03-01T05:49:11;11.87;;;5.03;;
19985;SDS011;10154;52.474;10.768;2023-03-01T05:51:38;14.80;;;4.80;;
19985;SDS011;10154;52.474;10.768;2023-03-01T05:54:04;24.50;;;7.57;;
19985;SDS011;10154;52.474;10.768;2023-03-01T05:56:31;16.53;;;5.70;;
19985;SDS011;10154;52.474;10.768;2023-03-01T05:58:58;16.73;;;6.43;;
19985;SDS011;10154;52.474;10.768;2023-03-01T06:01:23;10.70;;;5.00;;
19985;SDS011;10154;52.474;10.768;2023-03-01T06:03:48;13.57;;;5.20;;
19985;SDS011;10154;52.474;10.768;2023-03-01T06:06:15;13.47;;;5.60;;
19985;SDS011;10154;52.474;10.768;2023-03-01T06:08:40;13.70;;;5.40;;
19985;SDS011;10154;52.474;10.768;2023-03-01T06:11:05;11.77;;;4.97;;
19985;SDS011;10154;52.474;10.768;2023-03-01T06:13:32;12.83;;;5.07;;
19985;SDS011;10154;52.474;10.768;2023-03-01T06:15:57;13.03;;;4.97;;
19985;SDS011;10154;52.474;10.768;2023-03-01T06:18:22;14.90;;;4.97;;
19985;SDS011;10154;52.474;10.768;2023-03-01T06:20:54;13.77;;;5.07;;
19985;SDS011;10154;52.474;10.768;2023-03-01T06:23:21;11.43;;;5.07;;
19985;SDS011;10154;52.474;10.768;2023-03-01T06:25:46;10.57;;;4.63;;
19985;SDS011;10154;52.474;10.768;2023-03-01T06:28:12;12.87;;;5.13;;
19985;SDS011;10154;52.474;10.768;2023-03-01T06:30:37;17.53;;;6.70;;
19985;SDS011;10154;52.474;10.768;2023-03-01T06:33:02;13.37;;;5.57;;
19985;SDS011;10154;52.474;10.768;2023-03-01T06:35:28;20.10;;;7.03;;
19985;SDS011;10154;52.474;10.768;2023-03-01T06:37:56;16.97;;;6.67;;
19985;SDS011;10154;52.474;10.768;2023-03-01T06:40:22;19.23;;;7.20;;
19985;SDS011;10154;52.474;10.768;2023-03-01T06:42:48;22.73;;;7.57;;
19985;SDS011;10154;52.474;10.768;2023-03-01T06:45:15;27.50;;;7.73;;
19985;SDS011;10154;52.474;10.768;2023-03-01T06:47:41;26.70;;;8.90;;
19985;SDS011;10154;52.474;10.768;2023-03-01T06:50:06;35.03;;;11.30;;
19985;SDS011;10154;52.474;10.768;2023-03-01T06:52:32;32.17;;;10.30;;
19985;SDS011;10154;52.474;10.768;2023-03-01T06:54:57;25.10;;;9.70;;
19985;SDS011;10154;52.474;10.768;2023-03-01T06:57:23;22.53;;;8.67;;
19985;SDS011;10154;52.474;10.768;2023-03-01T06:59:48;20.80;;;8.77;;
19985;SDS011;10154;52.474;10.768;2023-03-01T07:02:14;18.53;;;8.43;;
19985;SDS011;10154;52.474;10.768;2023-03-01T07:04:40;22.43;;;7.83;;
19985;SDS011;10154;52.474;10.768;2023-03-01T07:07:05;22.37;;;8.60;;
19985;SDS011;10154;52.474;10.768;2023-03-01T07:09:31;22.23;;;8.20;;
19985;SDS011;10154;52.474;10.768;2023-03-01T07:11:56;19.50;;;7.87;;
19985;SDS011;10154;52.474;10.768;2023-03-01T07:14:22;18.20;;;6.97;;
19985;SDS011;10154;52.474;10.768;2023-03-01T07:16:50;18.30;;;7.40;;
19985;SDS011;10154;52.474;10.768;2023-03-01T07:19:16;17.93;;;6.90;;
19985;SDS011;10154;52.474;10.768;2023-03-01T07:21:41;19.67;;;7.47;;
19985;SDS011;10154;52.474;10.768;2023-03-01T07:24:07;20.17;;;7.90;;
19985;SDS011;10154;52.474;10.768;2023-03-01T07:26:32;21.57;;;8.03;;
19985;SDS011;10154;52.474;10.768;2023-03-01T07:29:01;20.77;;;9.13;;
19985;SDS011;10154;52.474;10.768;2023-03-01T07:31:28;24.97;;;10.70;;
19985;SDS011;10154;52.474;10.768;2023-03-01T07:33:54;21.93;;;9.60;;
19985;SDS011;10154;52.474;10.768;2023-03-01T07:36:19;20.37;;;9.10;;
19985;SDS011;10154;52.474;10.768;2023-03-01T07:38:45;27.00;;;10.90;;
19985;SDS011;10154;52.474;10.768;2023-03-01T07:41:10;22.13;;;9.93;;
19985;SDS011;10154;52.474;10.768;2023-03-01T07:43:38;23.97;;;10.33;;
19985;SDS011;10154;52.474;10.768;2023-03-01T07:46:04;23.87;;;10.30;;
19985;SDS011;10154;52.474;10.768;2023-03-01T07:48:30;23.37;;;11.13;;
19985;SDS011;10154;52.474;10.768;2023-03-01T07:51:02;27.73;;;12.27;;
19985;SDS011;10154;52.474;10.768;2023-03-01T07:53:28;32.80;;;14.27;;
19985;SDS011;10154;52.474;10.768;2023-03-01T07:56:06;26.70;;;13.93;;
19985;SDS011;10154;52.474;10.768;2023-03-01T07:58:40;29.20;;;13.23;;
19985;SDS011;10154;52.474;10.768;2023-03-01T08:01:08;19.47;;;10.70;;
19985;SDS011;10154;52.474;10.768;2023-03-01T08:03:34;23.67;;;10.13;;
19985;SDS011;10154;52.474;10.768;2023-03-01T08:06:00;18.90;;;9.23;;
19985;SDS011;10154;52.474;10.768;2023-03-01T08:08:27;12.50;;;7.20;;
19985;SDS011;10154;52.474;10.768;2023-03-01T08:10:55;16.03;;;6.00;;
19985;SDS011;10154;52.474;10.768;2023-03-01T08:13:21;11.53;;;5.97;;
19985;SDS011;10154;52.474;10.768;2023-03-01T08:15:48;12.20;;;5.40;;
19985;SDS011;10154;52.474;10.768;2023-03-01T08:18:14;10.30;;;5.00;;
19985;SDS011;10154;52.474;10.768;2023-03-01T08:20:40;11.93;;;5.10;;
19985;SDS011;10154;52.474;10.768;2023-03-01T08:23:05;9.47;;;5.50;;
19985;SDS011;10154;52.474;10.768;2023-03-01T08:25:30;9.97;;;4.90;;
19985;SDS011;10154;52.474;10.768;2023-03-01T08:27:55;10.10;;;5.07;;
19985;SDS011;10154;52.474;10.768;2023-03-01T08:30:21;14.23;;;4.90;;
19985;SDS011;10154;52.474;10.768;2023-03-01T08:32:48;10.60;;;5.43;;
19985;SDS011;10154;52.474;10.768;2023-03-01T08:35:14;9.00;;;5.03;;
19985;SDS011;10154;52.474;10.768;2023-03-01T08:37:39;8.87;;;4.60;;
19985;SDS011;10154;52.474;10.768;2023-03-01T08:40:05;10.30;;;5.10;;
19985;SDS011;10154;52.474;10.768;2023-03-01T08:42:33;11.90;;;4.90;;
19985;SDS011;10154;52.474;10.768;2023-03-01T08:44:59;10.00;;;4.80;;
19985;SDS011;10154;52.474;10.768;2023-03-01T08:47:24;8.90;;;4.50;;
19985;SDS011;10154;52.474;10.768;2023-03-01T08:49:50;12.53;;;4.67;;
19985;SDS011;10154;52.474;10.768;2023-03-01T08:52:16;7.70;;;4.00;;
19985;SDS011;10154;52.474;10.768;2023-03-01T08:54:41;9.07;;;4.30;;
19985;SDS011;10154;52.474;10.768;2023-03-01T08:57:06;8.97;;;4.27;;
19985;SDS011;10154;52.474;10.768;2023-03-01T08:59:32;9.40;;;4.00;;
19985;SDS011;10154;52.474;10.768;2023-03-01T09:02:02;11.40;;;4.00;;
19985;SDS011;10154;52.474;10.768;2023-03-01T09:04:27;8.70;;;3.97;;
19985;SDS011;10154;52.474;10.768;2023-03-01T09:06:53;6.57;;;3.60;;
19985;SDS011;10154;52.474;10.768;2023-03-01T09:09:18;8.00;;;3.50;;
19985;SDS011;10154;52.474;10.768;2023-03-01T09:11:44;9.17;;;3.53;;
19985;SDS011;10154;52.474;10.768;2023-03-01T09:14:11;9.87;;;4.00;;
19985;SDS011;10154;52.474;10.768;2023-03-01T09:16:37;8.13;;;3.70;;
19985;SDS011;10154;52.474;10.768;2023-03-01T09:19:03;6.60;;;3.53;;
19985;SDS011;10154;52.474;10.768;2023-03-01T09:21:28;6.70;;;3.70;;
19985;SDS011;10154;52.474;10.768;2023-03-01T09:23:55;9.40;;;4.43;;
19985;SDS011;10154;52.474;10.768;2023-03-01T09:26:22;7.33;;;4.23;;
19985;SDS011;10154;52.474;10.768;2023-03-01T09:28:51;6.70;;;4.20;;
19985;SDS011;10154;52.474;10.768;2023-03-01T09:31:19;9.20;;;3.90;;
19985;SDS011;10154;52.474;10.768;2023-03-01T09:33:46;6.67;;;3.70;;
19985;SDS011;10154;52.474;10.768;2023-03-01T09:36:15;10.60;;;4.00;;
19985;SDS011;10154;52.474;10.768;2023-03-01T09:38:42;6.03;;;3.37;;
19985;SDS011;10154;52.474;10.768;2023-03-01T09:41:09;7.10;;;3.10;;
19985;SDS011;10154;52.474;10.768;2023-03-01T09:43:49;6.73;;;3.00;;
19985;SDS011;10154;52.474;10.768;2023-03-01T09:46:19;6.03;;;3.43;;
19985;SDS011;10154;52.474;10.768;2023-03-01T09:49:09;6.57;;;3.40;;
19985;SDS011;10154;52.474;10.768;2023-03-01T09:52:07;5.80;;;3.10;;
19985;SDS011;10154;52.474;10.768;2023-03-01T09:54:37;6.05;;;3.38;;
19985;SDS011;10154;52.474;10.768;2023-03-01T10:02:23;5.57;;;3.20;;
19985;SDS011;10154;52.474;10.768;2023-03-01T10:04:54;7.07;;;3.15;;
19985;SDS011;10154;52.474;10.768;2023-03-01T10:10:06;5.25;;;3.30;;
19985;SDS011;10154;52.474;10.768;2023-03-01T10:12:34;7.63;;;3.53;;
19985;SDS011;10154;52.474;10.768;2023-03-01T10:15:11;6.22;;;3.40;;
19985;SDS011;10154;52.474;10.768;2023-03-01T10:17:53;7.57;;;3.90;;
19985;SDS011;10154;52.474;10.768;2023-03-01T10:20:25;6.80;;;3.60;;
19985;SDS011;10154;52.474;10.768;2023-03-01T10:22:53;5.75;;;3.17;;
19985;SDS011;10154;52.474;10.768;2023-03-01T10:31:10;6.57;;;3.80;;
19985;SDS011;10154;52.474;10.768;2023-03-01T10:33:38;5.93;;;3.40;;
19985;SDS011;10154;52.474;10.768;2023-03-01T10:36:04;5.88;;;3.30;;
19985;SDS011;10154;52.474;10.768;2023-03-01T10:38:31;4.43;;;2.92;;
19985;SDS011;10154;52.474;10.768;2023-03-01T10:41:12;5.93;;;3.25;;
19985;SDS011;10154;52.474;10.768;2023-03-01T10:46:31;5.35;;;2.88;;
19985;SDS011;10154;52.474;10.768;2023-03-01T10:49:14;4.55;;;2.70;;
19985;SDS011;10154;52.474;10.768;2023-03-01T10:51:40;6.03;;;3.00;;
19985;SDS011;10154;52.474;10.768;2023-03-01T10:54:06;5.68;;;2.90;;
19985;SDS011;10154;52.474;10.768;2023-03-01T10:56:59;5.55;;;2.70;;
19985;SDS011;10154;52.474;10.768;2023-03-01T10:59:29;5.88;;;2.92;;
19985;SDS011;10154;52.474;10.768;2023-03-01T11:04:26;4.30;;;2.60;;
19985;SDS011;10154;52.474;10.768;2023-03-01T11:06:58;4.25;;;2.78;;
19985;SDS011;10154;52.474;10.768;2023-03-01T11:09:24;5.28;;;3.00;;
19985;SDS011;10154;52.474;10.768;2023-03-01T11:11:53;4.78;;;2.67;;
19985;SDS011;10154;52.474;10.768;2023-03-01T11:14:27;5.30;;;2.85;;
19985;SDS011;10154;52.474;10.768;2023-03-01T11:19:37;5.18;;;3.30;;
19985;SDS011;10154;52.474;10.768;2023-03-01T11:22:12;4.90;;;2.80;;
19985;SDS011;10154;52.474;10.768;2023-03-01T11:24:42;5.45;;;2.80;;
19985;SDS011;10154;52.474;10.768;2023-03-01T11:30:00;4.45;;;2.80;;
19985;SDS011;10154;52.474;10.768;2023-03-01T11:32:34;4.45;;;2.63;;
19985;SDS011;10154;52.474;10.768;2023-03-01T11:35:12;5.80;;;3.05;;
19985;SDS011;10154;52.474;10.768;2023-03-01T12:10:35;5.38;;;2.75;;
19985;SDS011;10154;52.474;10.768;2023-03-01T12:18:44;4.07;;;2.40;;
19985;SDS011;10154;52.474;10.768;2023-03-01T12:24:09;4.60;;;2.55;;
19985;SDS011;10154;52.474;10.768;2023-03-01T12:26:50;4.28;;;2.63;;
19985;SDS011;10154;52.474;10.768;2023-03-01T12:29:25;4.68;;;2.72;;
19985;SDS011;10154;52.474;10.768;2023-03-01T12:39:41;4.90;;;2.97;;
19985;SDS011;10154;52.474;10.768;2023-03-01T12:45:37;4.57;;;2.80;;
19985;SDS011;10154;52.474;10.768;2023-03-01T12:51:04;4.22;;;2.80;;
19985;SDS011;10154;52.474;10.768;2023-03-01T12:53:36;4.70;;;2.75;;
19985;SDS011;10154;52.474;10.768;2023-03-01T12:56:11;3.65;;;2.65;;
19985;SDS011;10154;52.474;10.768;2023-03-01T12:58:41;4.55;;;3.03;;
19985;SDS011;10154;52.474;10.768;2023-03-01T13:11:50;5.43;;;2.55;;
19985;SDS011;10154;52.474;10.768;2023-03-01T13:16:50;4.43;;;2.80;;
19985;SDS011;10154;52.474;10.768;2023-03-01T13:19:26;6.03;;;2.80;;
19985;SDS011;10154;52.474;10.768;2023-03-01T13:22:00;5.50;;;2.92;;
19985;SDS011;10154;52.474;10.768;2023-03-01T13:24:41;4.57;;;2.47;;
19985;SDS011;10154;52.474;10.768;2023-03-01T13:29:51;6.82;;;2.60;;
19985;SDS011;10154;52.474;10.768;2023-03-01T13:34:47;5.72;;;2.78;;
19985;SDS011;10154;52.474;10.768;2023-03-01T13:37:22;4.30;;;2.65;;
19985;SDS011;10154;52.474;10.768;2023-03-01T13:39:54;5.22;;;3.00;;
19985;SDS011;10154;52.474;10.768;2023-03-01T13:44:58;4.63;;;2.40;;
19985;SDS011;10154;52.474;10.768;2023-03-01T13:47:24;4.53;;;2.40;;
19985;SDS011;10154;52.474;10.768;2023-03-01T13:49:59;5.53;;;2.73;;
19985;SDS011;10154;52.474;10.768;2023-03-01T13:52:39;5.17;;;2.70;;
19985;SDS011;10154;52.474;10.768;2023-03-01T13:57:42;4.53;;;2.60;;
19985;SDS011;10154;52.474;10.768;2023-03-01T14:03:11;3.90;;;2.20;;
19985;SDS011;10154;52.474;10.768;2023-03-01T14:06:01;5.47;;;2.40;;
19985;SDS011;10154;52.474;10.768;2023-03-01T14:08:40;5.80;;;2.30;;
19985;SDS011;10154;52.474;10.768;2023-03-01T14:14:06;5.60;;;2.37;;
19985;SDS011;10154;52.474;10.768;2023-03-01T14:19:40;4.73;;;2.10;;
19985;SDS011;10154;52.474;10.768;2023-03-01T14:22:27;6.13;;;2.40;;
19985;SDS011;10154;52.474;10.768;2023-03-01T14:24:55;5.17;;;2.50;;
19985;SDS011;10154;52.474;10.768;2023-03-01T14:27:23;6.40;;;2.53;;
19985;SDS011;10154;52.474;10.768;2023-03-01T14:30:10;4.90;;;2.40;;
19985;SDS011;10154;52.474;10.768;2023-03-01T14:32:42;3.37;;;2.20;;
19985;SDS011;10154;52.474;10.768;2023-03-01T14:35:21;6.70;;;2.50;;
19985;SDS011;10154;52.474;10.768;2023-03-01T14:37:48;7.13;;;2.23;;
19985;SDS011;10154;52.474;10.768;2023-03-01T14:40:48;6.00;;;2.40;;
19985;SDS011;10154;52.474;10.768;2023-03-01T14:43:10;4.90;;;2.37;;
19985;SDS011;10154;52.474;10.768;2023-03-01T14:45:36;3.83;;;1.90;;
19985;SDS011;10154;52.474;10.768;2023-03-01T14:48:02;5.83;;;2.13;;
19985;SDS011;10154;52.474;10.768;2023-03-01T14:50:30;5.30;;;2.00;;
19985;SDS011;10154;52.474;10.768;2023-03-01T14:52:57;6.57;;;2.57;;
19985;SDS011;10154;52.474;10.768;2023-03-01T14:55:29;5.00;;;2.40;;
19985;SDS011;10154;52.474;10.768;2023-03-01T14:58:09;6.60;;;2.50;;
19985;SDS011;10154;52.474;10.768;2023-03-01T15:00:37;3.97;;;2.17;;
19985;SDS011;10154;52.474;10.768;2023-03-01T15:03:14;5.27;;;2.60;;
19985;SDS011;10154;52.474;10.768;2023-03-01T15:05:45;5.77;;;2.37;;
19985;SDS011;10154;52.474;10.768;2023-03-01T15:08:16;4.33;;;2.30;;
19985;SDS011;10154;52.474;10.768;2023-03-01T15:10:55;4.80;;;2.33;;
19985;SDS011;10154;52.474;10.768;2023-03-01T15:13:23;4.97;;;2.20;;
19985;SDS011;10154;52.474;10.768;2023-03-01T15:15:50;6.13;;;2.40;;
19985;SDS011;10154;52.474;10.768;2023-03-01T15:20:51;3.60;;;2.17;;
19985;SDS011;10154;52.474;10.768;2023-03-01T15:23:24;5.20;;;2.30;;
19985;SDS011;10154;52.474;10.768;2023-03-01T15:25:51;4.40;;;2.30;;
19985;SDS011;10154;52.474;10.768;2023-03-01T15:28:33;7.30;;;2.27;;
19985;SDS011;10154;52.474;10.768;2023-03-01T15:31:01;4.90;;;2.63;;
19985;SDS011;10154;52.474;10.768;2023-03-01T15:33:36;6.27;;;2.60;;
19985;SDS011;10154;52.474;10.768;2023-03-01T15:36:48;4.87;;;2.30;;
19985;SDS011;10154;52.474;10.768;2023-03-01T15:38:57;8.80;;;2.57;;
19985;SDS011;10154;52.474;10.768;2023-03-01T15:41:28;4.87;;;2.47;;
19985;SDS011;10154;52.474;10.768;2023-03-01T15:43:59;6.47;;;2.53;;
19985;SDS011;10154;52.474;10.768;2023-03-01T15:46:29;4.77;;;2.30;;
19985;SDS011;10154;52.474;10.768;2023-03-01T15:49:05;4.07;;;2.20;;
19985;SDS011;10154;52.474;10.768;2023-03-01T15:51:50;6.70;;;2.33;;
19985;SDS011;10154;52.474;10.768;2023-03-01T15:54:21;4.43;;;2.50;;
19985;SDS011;10154;52.474;10.768;2023-03-01T15:56:47;4.07;;;2.37;;
19985;SDS011;10154;52.474;10.768;2023-03-01T15:59:13;5.90;;;2.37;;
19985;SDS011;10154;52.474;10.768;2023-03-01T16:01:39;5.23;;;2.00;;
19985;SDS011;10154;52.474;10.768;2023-03-01T16:04:09;3.20;;;1.90;;
19985;SDS011;10154;52.474;10.768;2023-03-01T16:06:38;5.60;;;2.30;;
19985;SDS011;10154;52.474;10.768;2023-03-01T16:09:04;3.67;;;2.20;;
19985;SDS011;10154;52.474;10.768;2023-03-01T16:11:29;3.37;;;1.97;;
19985;SDS011;10154;52.474;10.768;2023-03-01T16:13:57;4.17;;;2.00;;
19985;SDS011;10154;52.474;10.768;2023-03-01T16:16:23;4.37;;;2.10;;
19985;SDS011;10154;52.474;10.768;2023-03-01T16:18:48;4.03;;;2.00;;
19985;SDS011;10154;52.474;10.768;2023-03-01T16:21:15;4.77;;;1.93;;
19985;SDS011;10154;52.474;10.768;2023-03-01T16:23:44;2.73;;;1.83;;
19985;SDS011;10154;52.474;10.768;2023-03-01T16:26:09;5.47;;;1.87;;
19985;SDS011;10154;52.474;10.768;2023-03-01T16:28:35;5.50;;;2.00;;
19985;SDS011;10154;52.474;10.768;2023-03-01T16:31:00;3.80;;;2.00;;
19985;SDS011;10154;52.474;10.768;2023-03-01T16:33:26;4.20;;;2.20;;
19985;SDS011;10154;52.474;10.768;2023-03-01T16:35:52;3.73;;;2.10;;
19985;SDS011;10154;52.474;10.768;2023-03-01T16:38:18;4.73;;;2.07;;
19985;SDS011;10154;52.474;10.768;2023-03-01T16:40:46;4.97;;;2.30;;